createdAt,value
2019-05-03T00:00:44.684Z,76.20
2019-05-03T00:01:44.660Z,76.48
2019-05-03T00:02:44.635Z,76.76
2019-05-03T00:03:44.616Z,76.96
2019-05-03T00:04:44.598Z,76.86
2019-05-03T00:05:44.576Z,77.24
2019-05-03T00:06:44.549Z,77.15
2019-05-03T00:07:44.518Z,76.96
2019-05-03T00:08:44.499Z,77.05
2019-05-03T00:09:44.475Z,76.42
2019-05-03T00:10:44.457Z,76.14
2019-05-03T00:11:44.434Z,76.42
2019-05-03T00:12:44.401Z,75.89
2019-05-03T00:13:44.386Z,75.51
2019-05-03T00:14:44.361Z,75.13
2019-05-03T00:15:44.336Z,74.94
2019-05-03T00:16:44.313Z,75.13
2019-05-03T00:17:44.299Z,74.37
2019-05-03T00:18:44.257Z,74.65
2019-05-03T00:19:44.250Z,74.75
2019-05-03T00:20:44.213Z,74.65
2019-05-03T00:21:44.201Z,74.75
2019-05-03T00:22:44.174Z,74.37
2019-05-03T00:23:44.150Z,74.46
2019-05-03T00:24:44.124Z,74.37
2019-05-03T00:25:44.112Z,74.56
2019-05-03T00:26:44.088Z,75.13
2019-05-03T00:27:44.054Z,74.75
2019-05-03T00:28:44.040Z,74.84
2019-05-03T00:29:44.014Z,75.60
2019-05-03T00:30:43.987Z,75.32
2019-05-03T00:31:43.957Z,75.32
2019-05-03T00:32:43.935Z,75.42
2019-05-03T00:33:43.920Z,75.32
2019-05-03T00:34:46.270Z,75.51
2019-05-03T00:35:43.868Z,75.32
2019-05-03T00:36:43.858Z,75.99
2019-05-03T00:37:43.825Z,75.51
2019-05-03T00:38:43.802Z,75.60
2019-05-03T00:39:43.778Z,75.60
2019-05-03T00:40:43.763Z,76.18
2019-05-03T00:41:43.735Z,75.99
2019-05-03T00:42:43.711Z,75.99
2019-05-03T00:43:43.687Z,76.18
2019-05-03T00:44:43.661Z,75.79
2019-05-03T00:45:43.640Z,75.79
2019-05-03T00:46:51.813Z,75.89
2019-05-03T00:48:37.071Z,75.51
2019-05-03T00:49:36.973Z,75.79
2019-05-03T00:51:31.819Z,75.99
2019-05-03T00:52:31.820Z,76.46
2019-05-03T00:54:42.350Z,76.46
2019-05-03T00:55:42.001Z,76.65
2019-05-03T00:57:35.620Z,77.00
2019-05-03T00:58:35.574Z,77.03
2019-05-03T01:00:43.971Z,76.65
2019-05-03T01:01:43.565Z,76.94
2019-05-03T01:02:43.542Z,76.75
2019-05-03T01:03:52.653Z,76.56
2019-05-03T01:05:36.844Z,76.37
2019-05-03T01:06:44.474Z,76.75
2019-05-03T01:08:38.439Z,76.84
2019-05-03T01:09:31.757Z,76.75
2019-05-03T01:11:25.109Z,76.75
2019-05-03T01:12:25.047Z,76.65
2019-05-03T01:14:22.548Z,76.84
2019-05-03T01:15:21.538Z,77.61
2019-05-03T01:17:14.332Z,77.61
2019-05-03T01:18:14.267Z,77.42
2019-05-03T01:20:08.641Z,77.80
2019-05-03T01:21:08.611Z,77.13
2019-05-03T01:23:12.346Z,76.37
2019-05-03T01:24:02.961Z,76.65
2019-05-03T01:25:55.828Z,76.56
2019-05-03T01:26:55.805Z,76.46
2019-05-03T01:28:57.989Z,76.56
2019-05-03T01:29:57.819Z,76.75
2019-05-03T01:31:44.791Z,76.46
2019-05-03T01:32:44.510Z,77.03
2019-05-03T01:34:41.657Z,77.22
2019-05-03T01:35:40.406Z,76.94
2019-05-03T01:37:36.533Z,77.61
2019-05-03T01:38:36.232Z,77.32
2019-05-03T01:40:32.469Z,77.42
2019-05-03T01:41:32.222Z,77.61
2019-05-03T01:43:24.994Z,77.61
2019-05-03T01:44:24.930Z,77.70
2019-05-03T01:46:18.352Z,77.13
2019-05-03T01:47:18.303Z,77.13
2019-05-03T01:48:18.272Z,77.98
2019-05-03T01:49:18.254Z,78.27
2019-05-03T01:50:25.427Z,77.98
2019-05-03T01:52:27.183Z,78.46
2019-05-03T01:53:27.091Z,78.56
2019-05-03T01:54:27.062Z,77.98
2019-05-03T01:55:43.990Z,78.75
2019-05-03T01:57:22.058Z,78.42
2019-05-03T01:58:21.706Z,78.08
2019-05-03T02:00:22.444Z,78.27
2019-05-03T02:01:13.902Z,77.89
2019-05-03T02:03:06.815Z,78.75
2019-05-03T02:04:06.762Z,78.65
2019-05-03T02:06:00.145Z,78.37
2019-05-03T02:07:02.200Z,78.46
2019-05-03T02:08:55.512Z,79.03
2019-05-03T02:09:55.495Z,78.46
2019-05-03T02:11:52.577Z,79.13
2019-05-03T02:12:52.244Z,79.03
2019-05-03T02:14:44.785Z,80.08
2019-05-03T02:15:52.841Z,79.89
2019-05-03T02:17:38.179Z,78.75
2019-05-03T02:18:38.146Z,79.13
2019-05-03T02:20:32.540Z,78.61
2019-05-03T02:21:32.495Z,78.46
2019-05-03T02:22:32.466Z,78.65
2019-05-03T02:23:32.447Z,78.46
2019-05-03T02:24:32.844Z,78.37
2019-05-03T02:25:32.488Z,77.85
2019-05-03T02:26:32.381Z,77.95
2019-05-03T02:27:32.625Z,77.76
2019-05-03T02:28:32.669Z,77.95
2019-05-03T02:29:32.679Z,78.14
2019-05-03T02:30:33.248Z,77.95
2019-05-03T02:31:32.962Z,77.76
2019-05-03T02:32:33.222Z,77.37
2019-05-03T02:33:32.887Z,77.28
2019-05-03T02:34:32.855Z,77.19
2019-05-03T02:35:33.372Z,77.09
2019-05-03T02:36:33.739Z,77.56
2019-05-03T02:37:33.073Z,77.28
2019-05-03T02:38:33.742Z,77.47
2019-05-03T02:39:33.413Z,77.76
2019-05-03T02:40:33.909Z,77.76
2019-05-03T02:41:32.035Z,77.56
2019-05-03T02:42:32.015Z,77.37
2019-05-03T02:43:31.991Z,77.76
2019-05-03T02:44:31.967Z,77.85
2019-05-03T02:45:31.944Z,78.14
2019-05-03T02:46:31.935Z,77.76
2019-05-03T02:47:31.902Z,77.95
2019-05-03T02:48:31.885Z,78.52
2019-05-03T02:49:31.852Z,78.42
2019-05-03T02:50:31.835Z,78.33
2019-05-03T02:51:31.815Z,78.23
2019-05-03T02:52:31.782Z,78.33
2019-05-03T02:53:31.757Z,78.52
2019-05-03T02:54:31.736Z,78.33
2019-05-03T02:55:31.718Z,78.71
2019-05-03T02:56:31.688Z,78.48
2019-05-03T02:57:31.678Z,78.67
2019-05-03T02:58:31.644Z,79.62
2019-05-03T02:59:31.612Z,78.96
2019-05-03T03:00:31.594Z,79.05
2019-05-03T03:01:31.570Z,79.14
2019-05-03T03:02:31.547Z,79.33
2019-05-03T03:03:31.526Z,78.96
2019-05-03T03:04:31.504Z,79.72
2019-05-03T03:05:31.480Z,79.72
2019-05-03T03:06:31.456Z,80.00
2019-05-03T03:07:31.432Z,80.00
2019-05-03T03:08:33.383Z,80.76
2019-05-03T03:09:31.386Z,80.95
2019-05-03T03:10:31.362Z,80.76
2019-05-03T03:11:31.361Z,81.24
2019-05-03T03:12:31.316Z,81.05
2019-05-03T03:13:31.297Z,81.52
2019-05-03T03:14:31.270Z,82.53
2019-05-03T03:15:31.246Z,82.67
2019-05-03T03:16:31.223Z,82.62
2019-05-03T03:17:31.200Z,82.62
2019-05-03T03:18:31.172Z,82.34
2019-05-03T03:19:31.150Z,82.53
2019-05-03T03:20:31.127Z,83.00
2019-05-03T03:21:31.103Z,82.91
2019-05-03T03:22:31.080Z,82.71
2019-05-03T03:23:31.058Z,82.91
2019-05-03T03:24:31.030Z,82.91
2019-05-03T03:25:31.012Z,82.81
2019-05-03T03:26:39.193Z,82.62
2019-05-03T03:27:30.954Z,82.91
2019-05-03T03:28:30.935Z,83.10
2019-05-03T03:29:30.921Z,83.29
2019-05-03T03:30:30.891Z,83.00
2019-05-03T03:31:30.869Z,83.10
2019-05-03T03:32:30.846Z,82.71
2019-05-03T03:33:30.820Z,82.34
2019-05-03T03:34:30.812Z,82.71
2019-05-03T03:35:30.800Z,82.53
2019-05-03T03:36:46.037Z,82.15
2019-05-03T03:37:30.722Z,82.62
2019-05-03T03:38:30.696Z,82.53
2019-05-03T03:39:30.674Z,82.34
2019-05-03T03:40:30.654Z,82.62
2019-05-03T03:41:30.628Z,82.81
2019-05-03T03:42:30.602Z,83.29
2019-05-03T03:43:30.597Z,82.34
2019-05-03T03:44:30.549Z,82.71
2019-05-03T03:45:30.531Z,82.49
2019-05-03T03:46:32.238Z,82.71
2019-05-03T03:47:30.478Z,82.91
2019-05-03T03:48:30.457Z,83.44
2019-05-03T03:49:30.429Z,82.77
2019-05-03T03:50:30.406Z,83.34
2019-05-03T03:51:30.384Z,84.01
2019-05-03T03:52:30.361Z,84.01
2019-05-03T03:53:30.342Z,84.29
2019-05-03T03:54:30.311Z,83.91
2019-05-03T03:55:30.282Z,83.82
2019-05-03T03:56:30.263Z,83.91
2019-05-03T03:57:30.250Z,83.91
2019-05-03T03:58:30.212Z,84.10
2019-05-03T03:59:30.189Z,84.29
2019-05-03T04:00:30.168Z,84.77
2019-05-03T04:01:30.147Z,84.39
2019-05-03T04:02:30.118Z,84.58
2019-05-03T04:03:30.095Z,84.67
2019-05-03T04:04:30.072Z,84.48
2019-05-03T04:05:30.045Z,84.77
2019-05-03T04:06:30.031Z,84.67
2019-05-03T04:07:29.997Z,84.39
2019-05-03T04:08:29.978Z,84.77
2019-05-03T04:09:29.951Z,83.82
2019-05-03T04:10:29.941Z,83.82
2019-05-03T04:11:29.901Z,84.20
2019-05-03T04:12:29.879Z,84.62
2019-05-03T04:13:29.854Z,84.10
2019-05-03T04:14:29.829Z,84.48
2019-05-03T04:15:29.842Z,84.52
2019-05-03T04:16:29.801Z,84.10
2019-05-03T04:17:29.750Z,83.62
2019-05-03T04:18:29.729Z,84.20
2019-05-03T04:19:29.704Z,85.81
2019-05-03T04:20:29.688Z,85.81
2019-05-03T04:21:29.662Z,85.34
2019-05-03T04:22:29.635Z,85.62
2019-05-03T04:23:29.606Z,85.05
2019-05-03T04:24:29.586Z,85.24
2019-05-03T04:25:29.562Z,85.15
2019-05-03T04:26:30.178Z,85.62
2019-05-03T04:27:29.520Z,85.81
2019-05-03T04:28:29.491Z,86.29
2019-05-03T04:29:29.468Z,86.29
2019-05-03T04:30:29.470Z,86.57
2019-05-03T04:31:29.425Z,86.19
2019-05-03T04:32:29.389Z,85.43
2019-05-03T04:33:29.379Z,85.43
2019-05-03T04:34:29.345Z,86.10
2019-05-03T04:35:29.320Z,85.43
2019-05-03T04:36:29.297Z,85.43
2019-05-03T04:37:29.272Z,85.53
2019-05-03T04:38:29.251Z,85.72
2019-05-03T04:39:29.220Z,85.91
2019-05-03T04:40:29.193Z,85.15
2019-05-03T04:41:29.173Z,85.05
2019-05-03T04:42:29.141Z,84.58
2019-05-03T04:43:29.138Z,84.77
2019-05-03T04:44:29.100Z,84.67
2019-05-03T04:45:29.079Z,84.48
2019-05-03T04:46:29.052Z,83.95
2019-05-03T04:47:29.023Z,83.86
2019-05-03T04:48:29.007Z,84.14
2019-05-03T04:49:28.980Z,83.39
2019-05-03T04:50:28.970Z,82.71
2019-05-03T04:51:28.944Z,82.53
2019-05-03T04:52:28.924Z,81.96
2019-05-03T04:53:28.891Z,81.58
2019-05-03T04:54:28.865Z,81.48
2019-05-03T04:55:28.839Z,81.29
2019-05-03T04:56:36.490Z,80.91
2019-05-03T04:58:22.196Z,81.29
2019-05-03T04:59:22.148Z,81.38
2019-05-03T05:01:15.911Z,80.53
2019-05-03T05:02:16.053Z,81.24
2019-05-03T05:04:11.546Z,79.91
2019-05-03T05:05:11.474Z,79.72
2019-05-03T05:07:07.254Z,80.10
2019-05-03T05:08:07.226Z,78.86
2019-05-03T05:10:05.167Z,78.38
2019-05-03T05:11:05.775Z,78.19
2019-05-03T05:12:56.693Z,78.67
2019-05-03T05:13:56.665Z,78.38
2019-05-03T05:15:51.327Z,77.68
2019-05-03T05:16:51.297Z,78.19
2019-05-03T05:18:47.314Z,78.29
2019-05-03T05:19:47.255Z,78.67
2019-05-03T05:21:41.557Z,78.48
2019-05-03T05:22:41.529Z,78.29
2019-05-03T05:24:38.457Z,78.48
2019-05-03T05:25:38.412Z,78.38
2019-05-03T05:27:34.591Z,78.67
2019-05-03T05:28:35.464Z,78.25
2019-05-03T05:30:28.425Z,78.86
2019-05-03T05:31:28.164Z,79.05
2019-05-03T05:33:30.225Z,79.14
2019-05-03T05:34:24.457Z,79.05
2019-05-03T05:36:15.890Z,78.96
2019-05-03T05:37:15.843Z,78.57
2019-05-03T05:39:10.483Z,78.38
2019-05-03T05:40:10.219Z,78.38
2019-05-03T05:42:04.537Z,78.38
2019-05-03T05:43:04.874Z,78.77
2019-05-03T05:44:11.182Z,78.44
2019-05-03T05:46:05.631Z,78.57
2019-05-03T05:46:57.889Z,78.10
2019-05-03T05:48:51.271Z,78.48
2019-05-03T05:49:51.233Z,77.72
2019-05-03T05:50:51.187Z,77.91
2019-05-03T05:51:51.172Z,76.67
2019-05-03T05:52:51.165Z,77.72
2019-05-03T05:53:51.120Z,76.76
2019-05-03T05:54:51.102Z,76.76
2019-05-03T05:55:51.073Z,74.39
2019-05-03T05:56:51.054Z,74.39
2019-05-03T05:58:01.954Z,74.67
2019-05-03T05:58:51.004Z,74.77
2019-05-03T05:59:50.992Z,74.39
2019-05-03T06:00:50.966Z,74.48
2019-05-03T06:01:50.939Z,73.91
2019-05-03T06:02:50.941Z,72.67
2019-05-03T06:03:50.894Z,74.01
2019-05-03T06:04:50.870Z,73.82
2019-05-03T06:05:50.845Z,73.34
2019-05-03T06:06:50.841Z,73.15
2019-05-03T06:07:50.810Z,72.86
2019-05-03T06:08:50.778Z,72.24
2019-05-03T06:09:50.755Z,72.62
2019-05-03T06:10:50.738Z,72.24
2019-05-03T06:11:50.715Z,72.42
2019-05-03T06:12:50.688Z,71.76
2019-05-03T06:13:50.667Z,72.14
2019-05-03T06:14:50.662Z,70.72
2019-05-03T06:15:50.622Z,69.48
2019-05-03T06:16:50.597Z,70.33
2019-05-03T06:17:50.576Z,70.43
2019-05-03T06:18:50.558Z,68.62
2019-05-03T06:19:50.542Z,68.81
2019-05-03T06:20:50.525Z,69.38
2019-05-03T06:21:50.493Z,69.29
2019-05-03T06:22:50.464Z,68.71
2019-05-03T06:23:50.455Z,68.71
2019-05-03T06:24:51.409Z,68.56
2019-05-03T06:25:50.404Z,68.27
2019-05-03T06:26:50.377Z,68.33
2019-05-03T06:27:50.374Z,68.08
2019-05-03T06:28:50.330Z,68.18
2019-05-03T06:29:50.314Z,68.56
2019-05-03T06:30:50.299Z,68.84
2019-05-03T06:31:50.269Z,68.84
2019-05-03T06:32:50.252Z,69.23
2019-05-03T06:33:52.438Z,67.61
2019-05-03T06:34:50.220Z,68.27
2019-05-03T06:35:50.182Z,68.08
2019-05-03T06:36:51.519Z,67.70
2019-05-03T06:37:50.139Z,67.32
2019-05-03T06:38:50.120Z,67.22
2019-05-03T06:39:50.097Z,67.13
2019-05-03T06:40:50.568Z,67.16
2019-05-03T06:41:50.048Z,68.02
2019-05-03T06:42:54.412Z,66.08
2019-05-03T06:43:50.005Z,67.03
2019-05-03T06:44:49.993Z,66.88
2019-05-03T06:45:50.578Z,65.70
2019-05-03T06:46:49.942Z,65.99
2019-05-03T06:47:50.181Z,66.46
2019-05-03T06:48:49.916Z,66.37
2019-05-03T06:49:49.882Z,65.80
2019-05-03T06:50:49.874Z,65.61
2019-05-03T06:51:50.050Z,65.61
2019-05-03T06:52:49.817Z,65.42
2019-05-03T06:53:50.686Z,65.13
2019-05-03T06:54:49.784Z,65.23
2019-05-03T06:55:49.780Z,66.05
2019-05-03T06:56:49.741Z,66.33
2019-05-03T06:57:49.888Z,67.29
2019-05-03T06:58:49.705Z,67.95
2019-05-03T06:59:49.676Z,66.81
2019-05-03T07:00:49.656Z,66.56
2019-05-03T07:01:49.622Z,66.18
2019-05-03T07:02:49.603Z,66.27
2019-05-03T07:03:49.578Z,65.86
2019-05-03T07:04:49.598Z,66.37
2019-05-03T07:05:49.543Z,66.21
2019-05-03T07:06:49.518Z,64.62
2019-05-03T07:07:49.498Z,63.23
2019-05-03T07:08:49.477Z,61.86
2019-05-03T07:09:49.454Z,62.12
2019-05-03T07:10:49.505Z,62.88
2019-05-03T07:11:49.420Z,63.17
2019-05-03T07:12:49.404Z,63.54
2019-05-03T07:13:49.374Z,63.29
2019-05-03T07:14:50.503Z,62.91
2019-05-03T07:15:49.333Z,63.00
2019-05-03T07:16:49.314Z,62.52
2019-05-03T07:17:49.299Z,62.43
2019-05-03T07:18:49.287Z,62.30
2019-05-03T07:19:49.246Z,62.15
2019-05-03T07:20:49.306Z,62.37
2019-05-03T07:21:49.369Z,62.18
2019-05-03T07:22:49.258Z,61.51
2019-05-03T07:23:49.238Z,61.13
2019-05-03T07:24:49.224Z,60.94
2019-05-03T07:25:49.181Z,60.46
2019-05-03T07:26:49.168Z,61.07
2019-05-03T07:27:49.159Z,60.39
2019-05-03T07:28:50.184Z,59.16
2019-05-03T07:29:49.907Z,58.46
2019-05-03T07:30:49.084Z,59.22
2019-05-03T07:31:49.089Z,60.33
2019-05-03T07:32:49.005Z,61.00
2019-05-03T07:33:48.978Z,61.73
2019-05-03T07:34:48.962Z,62.12
2019-05-03T07:35:48.943Z,62.78
2019-05-03T07:36:48.916Z,63.45
2019-05-03T07:37:48.900Z,63.64
2019-05-03T07:38:48.892Z,64.12
2019-05-03T07:39:48.887Z,64.50
2019-05-03T07:40:48.865Z,65.55
2019-05-03T07:41:48.832Z,64.78
2019-05-03T07:42:48.798Z,64.40
2019-05-03T07:43:48.779Z,64.02
2019-05-03T07:44:48.799Z,63.92
2019-05-03T07:45:48.803Z,63.83
2019-05-03T07:46:48.722Z,64.18
2019-05-03T07:47:48.701Z,64.75
2019-05-03T07:48:48.792Z,65.32
2019-05-03T07:49:48.661Z,65.51
2019-05-03T07:50:48.644Z,65.70
2019-05-03T07:51:48.630Z,66.27
2019-05-03T07:52:48.663Z,66.94
2019-05-03T07:53:48.581Z,66.94
2019-05-03T07:54:48.637Z,66.75
2019-05-03T07:55:48.548Z,66.08
2019-05-03T07:56:48.534Z,66.37
2019-05-03T07:57:48.557Z,65.95
2019-05-03T07:58:59.744Z,66.53
2019-05-03T07:59:48.507Z,66.81
2019-05-03T08:00:48.572Z,67.10
2019-05-03T08:01:48.449Z,67.76
2019-05-03T08:02:48.403Z,68.05
2019-05-03T08:03:48.397Z,67.86
2019-05-03T08:04:48.454Z,67.47
2019-05-03T08:05:48.335Z,67.57
2019-05-03T08:06:48.316Z,67.67
2019-05-03T08:07:48.291Z,66.94
2019-05-03T08:08:48.265Z,66.94
2019-05-03T08:09:55.899Z,67.61
2019-05-03T08:11:44.426Z,70.39
2019-05-03T08:12:42.668Z,70.87
2019-05-03T08:14:37.046Z,73.30
2019-05-03T08:15:45.115Z,74.26
2019-05-03T08:17:30.463Z,75.96
2019-05-03T08:18:30.405Z,76.82
2019-05-03T08:19:30.398Z,77.92
2019-05-03T08:20:38.542Z,78.50
2019-05-03T08:22:31.977Z,78.88
2019-05-03T08:23:30.035Z,79.06
2019-05-03T08:25:18.062Z,79.83
2019-05-03T08:26:18.056Z,80.15
2019-05-03T08:28:11.402Z,79.96
2019-05-03T08:29:16.258Z,78.82
2019-05-03T08:31:04.820Z,78.91
2019-05-03T08:32:05.050Z,78.91
2019-05-03T08:33:58.535Z,78.63
2019-05-03T08:34:57.770Z,78.91
2019-05-03T08:35:57.745Z,78.91
2019-05-03T08:36:57.733Z,79.77
2019-05-03T08:37:57.726Z,78.91
2019-05-03T08:39:06.959Z,79.49
2019-05-03T08:40:51.092Z,78.72
2019-05-03T08:41:51.056Z,78.72
2019-05-03T08:43:44.727Z,78.16
2019-05-03T08:44:45.311Z,78.06
2019-05-03T08:46:37.757Z,78.06
2019-05-03T08:47:37.701Z,78.53
2019-05-03T08:49:31.067Z,77.30
2019-05-03T08:50:38.678Z,78.16
2019-05-03T08:52:34.754Z,77.49
2019-05-03T08:53:25.663Z,77.01
2019-05-03T08:55:19.288Z,75.68
2019-05-03T08:56:19.316Z,76.73
2019-05-03T08:58:15.486Z,76.35
2019-05-03T08:59:26.788Z,76.54
2019-05-03T09:01:06.089Z,75.68
2019-05-03T09:02:13.916Z,75.87
2019-05-03T09:03:05.911Z,74.54
2019-05-03T09:04:05.988Z,74.63
2019-05-03T09:05:05.858Z,75.53
2019-05-03T09:06:05.859Z,75.62
2019-05-03T09:07:05.801Z,74.67
2019-05-03T09:08:05.908Z,74.43
2019-05-03T09:09:05.758Z,74.62
2019-05-03T09:10:05.747Z,73.76
2019-05-03T09:11:05.718Z,71.61
2019-05-03T09:12:05.698Z,69.54
2019-05-03T09:13:06.544Z,67.93
2019-05-03T09:14:05.643Z,66.02
2019-05-03T09:15:05.623Z,64.91
2019-05-03T09:16:05.652Z,65.00
2019-05-03T09:17:05.577Z,64.05
2019-05-03T09:18:05.584Z,64.09
2019-05-03T09:19:05.765Z,63.70
2019-05-03T09:20:05.541Z,63.80
2019-05-03T09:21:05.498Z,62.75
2019-05-03T09:22:06.191Z,62.34
2019-05-03T09:23:05.604Z,62.91
2019-05-03T09:24:05.434Z,63.96
2019-05-03T09:25:05.417Z,64.97
2019-05-03T09:26:05.470Z,64.05
2019-05-03T09:27:05.639Z,62.97
2019-05-03T09:28:05.355Z,63.54
2019-05-03T09:29:05.652Z,64.05
2019-05-03T09:30:05.330Z,64.15
2019-05-03T09:31:05.304Z,62.91
2019-05-03T09:32:05.356Z,62.72
2019-05-03T09:33:08.665Z,62.18
2019-05-03T09:34:08.102Z,61.44
2019-05-03T09:35:05.570Z,60.87
2019-05-03T09:36:05.457Z,59.22
2019-05-03T09:37:05.183Z,57.62
2019-05-03T09:38:05.843Z,54.97
2019-05-03T09:39:05.179Z,53.44
2019-05-03T09:40:05.132Z,52.53
2019-05-03T09:41:05.316Z,53.39
2019-05-03T09:42:05.151Z,53.13
2019-05-03T09:43:05.080Z,52.58
2019-05-03T09:44:05.075Z,51.39
2019-05-03T09:45:05.068Z,49.09
2019-05-03T09:46:05.252Z,48.52
2019-05-03T09:47:05.624Z,50.56
2019-05-03T09:48:05.660Z,50.00
2019-05-03T09:49:13.304Z,46.36
2019-05-03T09:50:04.998Z,46.84
2019-05-03T09:51:05.232Z,47.58
2019-05-03T09:52:07.987Z,47.34
2019-05-03T09:53:05.620Z,48.59
2019-05-03T09:54:05.363Z,50.86
2019-05-03T09:55:05.294Z,51.72
2019-05-03T09:56:05.137Z,52.01
2019-05-03T09:57:05.799Z,51.89
2019-05-03T09:58:05.560Z,52.24
2019-05-03T09:59:05.395Z,53.17
2019-05-03T10:00:05.025Z,54.60
2019-05-03T10:01:06.241Z,54.79
2019-05-03T10:02:05.131Z,55.08
2019-05-03T10:03:05.627Z,54.79
2019-05-03T10:04:05.493Z,54.79
2019-05-03T10:05:04.793Z,56.04
2019-05-03T10:06:04.786Z,55.49
2019-05-03T10:07:04.777Z,54.08
2019-05-03T10:08:05.210Z,53.16
2019-05-03T10:09:05.395Z,51.72
2019-05-03T10:10:05.713Z,52.10
2019-05-03T10:11:05.482Z,51.79
2019-05-03T10:12:05.464Z,52.24
2019-05-03T10:13:12.954Z,52.53
2019-05-03T10:14:04.782Z,53.00
2019-05-03T10:15:06.521Z,53.80
2019-05-03T10:16:06.038Z,53.11
2019-05-03T10:17:05.428Z,50.72
2019-05-03T10:18:10.285Z,48.71
2019-05-03T10:19:04.629Z,49.35
2019-05-03T10:20:04.576Z,49.62
2019-05-03T10:21:05.271Z,51.70
2019-05-03T10:22:05.770Z,50.84
2019-05-03T10:23:05.312Z,50.86
2019-05-03T10:24:05.831Z,50.00
2019-05-03T10:25:04.988Z,51.00
2019-05-03T10:26:05.104Z,51.86
2019-05-03T10:27:05.612Z,52.81
2019-05-03T10:28:05.781Z,52.53
2019-05-03T10:29:05.413Z,53.22
2019-05-03T10:30:12.945Z,53.61
2019-05-03T10:31:07.436Z,52.36
2019-05-03T10:32:04.431Z,52.55
2019-05-03T10:33:06.015Z,52.08
2019-05-03T10:34:05.760Z,52.46
2019-05-03T10:35:05.699Z,53.00
2019-05-03T10:36:05.481Z,53.00
2019-05-03T10:37:05.215Z,53.20
2019-05-03T10:38:05.812Z,53.74
2019-05-03T10:39:04.800Z,54.60
2019-05-03T10:40:07.731Z,55.30
2019-05-03T10:41:05.809Z,53.80
2019-05-03T10:42:04.862Z,53.58
2019-05-03T10:43:04.867Z,53.03
2019-05-03T10:44:06.038Z,52.15
2019-05-03T10:45:04.697Z,52.34
2019-05-03T10:46:05.161Z,53.20
2019-05-03T10:47:05.464Z,53.22
2019-05-03T10:48:04.828Z,52.03
2019-05-03T10:49:05.799Z,51.17
2019-05-03T10:50:04.676Z,50.79
2019-05-03T10:51:04.713Z,50.09
2019-05-03T10:52:05.623Z,50.86
2019-05-03T10:53:05.209Z,50.76
2019-05-03T10:54:05.200Z,50.84
2019-05-03T10:55:05.348Z,51.60
2019-05-03T10:56:05.070Z,51.31
2019-05-03T10:57:05.303Z,50.48
2019-05-03T10:58:05.303Z,50.07
2019-05-03T10:59:05.983Z,51.21
2019-05-03T11:00:05.042Z,50.93
2019-05-03T11:01:04.958Z,50.38
2019-05-03T11:02:04.000Z,50.34
2019-05-03T11:03:05.306Z,47.99
2019-05-03T11:04:05.301Z,46.12
2019-05-03T11:05:05.210Z,45.33
2019-05-03T11:06:05.513Z,44.95
2019-05-03T11:07:05.469Z,44.16
2019-05-03T11:08:04.993Z,45.14
2019-05-03T11:09:05.648Z,44.26
2019-05-03T11:10:05.298Z,43.39
2019-05-03T11:11:05.924Z,43.99
2019-05-03T11:12:05.356Z,44.47
2019-05-03T11:13:05.879Z,44.16
2019-05-03T11:14:05.505Z,43.97
2019-05-03T11:15:03.822Z,43.63
2019-05-03T11:16:05.590Z,45.19
2019-05-03T11:17:05.518Z,45.00
2019-05-03T11:18:05.569Z,45.19
2019-05-03T11:19:05.490Z,45.00
2019-05-03T11:20:05.294Z,45.21
2019-05-03T11:21:05.222Z,43.97
2019-05-03T11:22:05.477Z,44.40
2019-05-03T11:23:05.965Z,42.77
2019-05-03T11:24:03.706Z,42.60
2019-05-03T11:25:05.152Z,44.38
2019-05-03T11:26:03.674Z,45.89
2019-05-03T11:27:03.666Z,46.56
2019-05-03T11:28:04.888Z,47.63
2019-05-03T11:29:05.175Z,46.46
2019-05-03T11:30:04.949Z,47.49
2019-05-03T11:31:05.029Z,47.94
2019-05-03T11:32:09.494Z,49.18
2019-05-03T11:33:03.623Z,50.28
2019-05-03T11:34:03.594Z,51.64
2019-05-03T11:35:04.589Z,51.74
2019-05-03T11:36:04.423Z,51.45
2019-05-03T11:37:04.949Z,50.57
2019-05-03T11:38:05.460Z,51.64
2019-05-03T11:39:04.944Z,51.43
2019-05-03T11:40:05.108Z,51.52
2019-05-03T11:41:04.857Z,51.71
2019-05-03T11:42:04.693Z,52.26
2019-05-03T11:43:04.628Z,53.21
2019-05-03T11:44:03.969Z,53.33
2019-05-03T11:45:03.425Z,53.33
2019-05-03T11:46:03.400Z,52.31
2019-05-03T11:47:05.621Z,52.22
2019-05-03T11:48:12.021Z,52.03
2019-05-03T11:49:57.832Z,52.40
2019-05-03T11:50:57.794Z,52.43
2019-05-03T11:52:51.201Z,49.98
2019-05-03T11:53:51.164Z,49.35
2019-05-03T11:55:47.302Z,46.82
2019-05-03T11:56:47.280Z,45.62
2019-05-03T11:58:40.806Z,40.96
2019-05-03T11:59:40.786Z,40.31
2019-05-03T12:01:44.932Z,39.47
2019-05-03T12:02:35.118Z,39.76
2019-05-03T12:04:38.327Z,38.56
2019-05-03T12:05:30.540Z,39.95
2019-05-03T12:06:30.506Z,38.87
2019-05-03T12:07:39.018Z,38.35
2019-05-03T12:08:30.477Z,38.81
2019-05-03T12:09:30.469Z,39.60
2019-05-03T12:10:44.670Z,39.91
2019-05-03T12:11:30.468Z,39.04
2019-05-03T12:12:30.439Z,38.45
2019-05-03T12:13:38.113Z,38.79
2019-05-03T12:15:27.693Z,41.22
2019-05-03T12:17:08.575Z,42.54
2019-05-03T12:18:21.840Z,44.34
2019-05-03T12:19:28.224Z,45.20
2019-05-03T12:21:17.958Z,46.58
2019-05-03T12:22:16.725Z,48.11
2019-05-03T12:23:17.067Z,48.39
2019-05-03T12:24:16.885Z,48.49
2019-05-03T12:25:16.893Z,48.71
2019-05-03T12:26:17.507Z,48.30
2019-05-03T12:27:16.439Z,47.82
2019-05-03T12:28:16.167Z,47.44
2019-05-03T12:29:16.184Z,46.58
2019-05-03T12:30:16.075Z,46.68
2019-05-03T12:31:29.694Z,47.25
2019-05-03T12:32:16.047Z,47.25
2019-05-03T12:33:16.028Z,47.54
2019-05-03T12:34:16.075Z,48.04
2019-05-03T12:35:16.042Z,46.84
2019-05-03T12:36:15.979Z,45.96
2019-05-03T12:37:15.963Z,45.03
2019-05-03T12:38:16.610Z,43.43
2019-05-03T12:39:26.770Z,41.58
2019-05-03T12:40:15.929Z,42.07
2019-05-03T12:41:15.967Z,42.25
2019-05-03T12:42:18.749Z,41.85
2019-05-03T12:43:15.877Z,41.97
2019-05-03T12:44:15.855Z,42.85
2019-05-03T12:45:15.843Z,43.35
2019-05-03T12:46:16.836Z,41.82
2019-05-03T12:47:15.815Z,40.94
2019-05-03T12:48:15.816Z,40.53
2019-05-03T12:49:15.783Z,41.49
2019-05-03T12:50:15.820Z,42.71
2019-05-03T12:51:15.955Z,43.26
2019-05-03T12:52:16.596Z,44.98
2019-05-03T12:53:15.752Z,45.17
2019-05-03T12:54:15.720Z,44.51
2019-05-03T12:55:15.696Z,44.31
2019-05-03T12:56:22.631Z,44.87
2019-05-03T12:57:15.682Z,45.08
2019-05-03T12:58:15.648Z,43.72
2019-05-03T12:59:16.216Z,44.38
2019-05-03T13:00:15.709Z,45.25
2019-05-03T13:01:15.801Z,46.11
2019-05-03T13:02:15.630Z,46.39
2019-05-03T13:03:15.565Z,47.16
2019-05-03T13:04:15.649Z,48.08
2019-05-03T13:05:15.581Z,48.73
2019-05-03T13:06:15.517Z,49.68
2019-05-03T13:07:15.502Z,51.62
2019-05-03T13:08:15.480Z,51.81
2019-05-03T13:09:16.026Z,52.76
2019-05-03T13:10:21.815Z,52.86
2019-05-03T13:11:15.466Z,53.31
2019-05-03T13:12:15.470Z,53.24
2019-05-03T13:13:15.408Z,53.24
2019-05-03T13:14:15.757Z,53.24
2019-05-03T13:15:15.356Z,53.24
2019-05-03T13:16:15.424Z,52.50
2019-05-03T13:17:15.329Z,52.31
2019-05-03T13:18:15.693Z,51.57
2019-05-03T13:19:15.307Z,50.62
2019-05-03T13:20:15.264Z,50.19
2019-05-03T13:21:15.250Z,49.74
2019-05-03T13:22:15.228Z,47.30
2019-05-03T13:23:15.218Z,46.15
2019-05-03T13:24:22.841Z,45.38
2019-05-03T13:25:15.659Z,44.95
2019-05-03T13:26:15.174Z,46.08
2019-05-03T13:27:15.148Z,46.56
2019-05-03T13:28:15.380Z,46.84
2019-05-03T13:29:15.373Z,47.13
2019-05-03T13:30:15.889Z,46.17
2019-05-03T13:31:16.147Z,45.98
2019-05-03T13:32:15.069Z,46.06
2019-05-03T13:33:15.279Z,47.30
2019-05-03T13:34:15.918Z,48.09
2019-05-03T13:35:15.193Z,47.61
2019-05-03T13:36:15.234Z,48.09
2019-05-03T13:37:15.142Z,47.49
2019-05-03T13:38:14.979Z,46.61
2019-05-03T13:39:15.032Z,46.97
2019-05-03T13:40:14.946Z,47.44
2019-05-03T13:41:14.928Z,48.11
2019-05-03T13:42:14.898Z,47.73
2019-05-03T13:43:15.157Z,47.16
2019-05-03T13:44:15.726Z,47.82
2019-05-03T13:45:14.845Z,48.02
2019-05-03T13:46:15.660Z,47.82
2019-05-03T13:47:15.077Z,47.94
2019-05-03T13:48:16.837Z,47.85
2019-05-03T13:49:15.864Z,46.72
2019-05-03T13:50:15.239Z,45.10
2019-05-03T13:51:14.835Z,44.29
2019-05-03T13:52:14.732Z,43.26
2019-05-03T13:53:16.165Z,41.67
2019-05-03T13:54:15.079Z,40.35
2019-05-03T13:55:14.723Z,38.98
2019-05-03T13:56:15.258Z,39.87
2019-05-03T13:57:15.458Z,39.58
2019-05-03T13:59:35.257Z,38.26
2019-05-03T14:00:45.330Z,37.84